createdAt,value
2018-07-19T00:00:01.681Z,13.50
2018-07-19T00:01:08.136Z,14.50
2018-07-19T00:02:11.689Z,13.50
2018-07-19T00:03:15.651Z,14.50
2018-07-19T00:04:20.847Z,14.00
2018-07-19T00:06:35.710Z,14.50
2018-07-19T00:07:39.914Z,14.00
2018-07-19T00:08:43.908Z,14.50
2018-07-19T00:09:46.975Z,14.00
2018-07-19T00:10:50.351Z,14.75
2018-07-19T00:11:53.386Z,14.50
2018-07-19T00:12:56.368Z,14.00
2018-07-19T00:13:59.929Z,13.00
2018-07-19T00:15:02.968Z,13.50
2018-07-19T00:16:05.843Z,14.25
2018-07-19T00:17:10.356Z,15.00
2018-07-19T00:18:13.301Z,12.25
2018-07-19T00:19:17.480Z,14.75
2018-07-19T00:20:21.440Z,15.50
2018-07-19T00:21:24.389Z,12.75
2018-07-19T00:22:27.334Z,13.50
2018-07-19T00:23:30.809Z,13.75
2018-07-19T00:24:34.266Z,14.00
2018-07-19T00:25:40.740Z,14.75
2018-07-19T00:26:44.363Z,14.00
2018-07-19T00:27:47.995Z,14.00
2018-07-19T00:28:51.520Z,14.25
2018-07-19T00:29:56.231Z,15.00
2018-07-19T00:30:59.361Z,14.25
2018-07-19T00:32:02.378Z,15.00
2018-07-19T00:33:05.338Z,14.00
2018-07-19T00:34:08.464Z,14.75
2018-07-19T00:35:11.370Z,15.25
2018-07-19T00:36:15.539Z,14.50
2018-07-19T00:37:19.423Z,16.50
2018-07-19T00:38:22.582Z,14.25
2018-07-19T00:39:25.578Z,13.50
2018-07-19T00:40:32.943Z,15.50
2018-07-19T00:41:37.002Z,16.75
2018-07-19T00:42:40.507Z,16.00
2018-07-19T00:43:43.550Z,17.00
2018-07-19T00:44:46.689Z,14.50
2018-07-19T00:45:50.545Z,15.00
2018-07-19T00:46:54.883Z,13.75
2018-07-19T00:47:59.280Z,14.75
2018-07-19T00:49:03.328Z,14.00
2018-07-19T00:50:06.401Z,14.75
2018-07-19T00:51:09.489Z,14.00
2018-07-19T00:52:15.528Z,14.00
2018-07-19T00:53:19.489Z,15.75
2018-07-19T00:54:24.878Z,13.50
2018-07-19T00:55:29.423Z,13.25
2018-07-19T00:56:39.327Z,13.75
2018-07-19T00:57:47.526Z,15.75
2018-07-19T00:58:53.748Z,14.25
2018-07-19T00:59:58.403Z,14.00
2018-07-19T01:01:01.540Z,15.25
2018-07-19T01:02:05.359Z,16.00
2018-07-19T01:03:09.362Z,15.75
2018-07-19T01:04:13.218Z,14.00
2018-07-19T01:05:16.162Z,14.00
2018-07-19T01:06:19.123Z,14.00
2018-07-19T01:08:47.954Z,13.00
2018-07-19T01:22:53.817Z,12.75
2018-07-19T01:23:57.402Z,15.25
2018-07-19T01:25:00.934Z,16.25
2018-07-19T01:26:04.510Z,15.75
2018-07-19T01:27:07.590Z,17.00
2018-07-19T01:28:10.525Z,14.50
2018-07-19T01:29:14.225Z,14.50
2018-07-19T01:30:17.243Z,15.25
2018-07-19T01:31:20.303Z,15.50
2018-07-19T01:32:23.286Z,14.50
2018-07-19T01:33:26.242Z,13.25
2018-07-19T01:34:29.189Z,15.00
2018-07-19T01:35:34.561Z,16.50
2018-07-19T01:36:37.467Z,15.00
2018-07-19T01:37:41.447Z,15.75
2018-07-19T01:38:44.365Z,16.75
2018-07-19T01:39:47.275Z,18.25
2018-07-19T01:40:50.308Z,19.00
2018-07-19T01:41:54.289Z,19.50
2018-07-19T01:42:57.471Z,19.00
2018-07-19T01:44:00.338Z,21.25
2018-07-19T01:45:04.711Z,17.00
2018-07-19T01:46:07.988Z,18.50
2018-07-19T01:47:12.904Z,20.00
2018-07-19T01:48:17.577Z,19.75
2018-07-19T01:49:20.527Z,18.50
2018-07-19T01:50:23.479Z,19.25
2018-07-19T01:51:26.376Z,17.25
2018-07-19T01:52:29.415Z,18.25
2018-07-19T01:53:34.291Z,18.00
2018-07-19T01:54:39.673Z,21.00
2018-07-19T01:55:52.017Z,20.00
2018-07-19T01:56:55.879Z,19.50
2018-07-19T01:57:58.922Z,22.00
2018-07-19T01:59:01.968Z,21.25
2018-07-19T02:00:05.997Z,18.00
2018-07-19T02:01:09.393Z,21.75
2018-07-19T02:02:12.795Z,20.00
2018-07-19T02:03:16.277Z,20.50
2018-07-19T02:04:19.546Z,22.00
2018-07-19T02:05:29.600Z,22.25
2018-07-19T02:06:35.587Z,19.75
2018-07-19T02:07:39.928Z,21.75
2018-07-19T02:08:42.796Z,19.75
2018-07-19T02:09:45.767Z,20.25
2018-07-19T02:10:49.913Z,18.75
2018-07-19T02:11:55.930Z,18.75
2018-07-19T02:12:59.312Z,19.00
2018-07-19T02:14:02.701Z,16.25
2018-07-19T02:15:07.145Z,17.00
2018-07-19T02:16:10.318Z,17.00
2018-07-19T02:17:14.091Z,17.00
2018-07-19T02:18:17.809Z,16.75
2018-07-19T02:19:21.395Z,16.00
2018-07-19T02:20:24.824Z,16.50
2018-07-19T02:21:28.936Z,14.75
2018-07-19T02:22:31.937Z,17.00
2018-07-19T02:23:34.938Z,16.25
2018-07-19T02:24:37.987Z,15.50
2018-07-19T02:25:41.200Z,14.50
2018-07-19T02:26:47.588Z,15.75
2018-07-19T02:27:51.797Z,15.75
2018-07-19T02:29:00.257Z,17.00
2018-07-19T02:30:03.423Z,16.50
2018-07-19T02:31:09.948Z,15.50
2018-07-19T02:32:14.823Z,16.75
2018-07-19T02:33:17.852Z,15.75
2018-07-19T02:34:21.864Z,16.25
2018-07-19T02:35:25.009Z,16.75
2018-07-19T02:36:28.555Z,15.75
2018-07-19T02:37:31.687Z,16.75
2018-07-19T02:38:35.482Z,15.50
2018-07-19T02:39:40.104Z,16.00
2018-07-19T02:40:43.611Z,16.25
2018-07-19T02:41:46.947Z,16.00
2018-07-19T02:42:50.856Z,16.00
2018-07-19T02:43:54.268Z,16.00
2018-07-19T02:44:57.935Z,16.75
2018-07-19T02:46:02.487Z,13.50
2018-07-19T02:47:06.190Z,16.00
2018-07-19T02:48:09.932Z,15.75
2018-07-19T02:49:13.108Z,16.25
2018-07-19T02:50:17.339Z,17.00
2018-07-19T02:51:20.700Z,14.75
2018-07-19T02:52:23.622Z,16.50
2018-07-19T02:53:26.531Z,16.50
2018-07-19T02:54:29.455Z,17.00
2018-07-19T02:55:32.454Z,14.50
2018-07-19T02:56:35.380Z,15.75
2018-07-19T02:57:38.292Z,15.25
2018-07-19T02:58:42.092Z,15.75
2018-07-19T02:59:44.980Z,19.00
2018-07-19T03:00:48.518Z,16.00
2018-07-19T03:01:51.489Z,18.00
2018-07-19T03:02:54.386Z,14.50
2018-07-19T03:03:58.366Z,15.00
2018-07-19T03:05:01.212Z,15.75
2018-07-19T03:06:07.116Z,18.50
2018-07-19T03:07:10.052Z,18.75
2018-07-19T03:08:12.965Z,17.75
2018-07-19T03:09:15.873Z,16.50
2018-07-19T03:10:19.251Z,19.00
2018-07-19T03:11:23.157Z,15.50
2018-07-19T03:12:26.083Z,16.00
2018-07-19T03:13:29.481Z,18.50
2018-07-19T03:14:32.375Z,20.00
2018-07-19T03:15:36.568Z,17.75
2018-07-19T03:16:41.562Z,15.50
2018-07-19T03:17:44.572Z,20.00
2018-07-19T03:18:47.485Z,18.75
2018-07-19T03:19:50.998Z,18.50
2018-07-19T03:20:53.906Z,19.00
2018-07-19T03:21:56.938Z,19.75
2018-07-19T03:23:00.876Z,19.00
2018-07-19T03:24:05.015Z,18.50
2018-07-19T03:25:09.567Z,18.75
2018-07-19T03:26:13.693Z,19.75
2018-07-19T03:27:16.640Z,18.50
2018-07-19T03:28:19.646Z,16.75
2018-07-19T03:29:26.054Z,19.00
2018-07-19T03:30:28.989Z,20.00
2018-07-19T03:31:32.723Z,19.75
2018-07-19T03:32:35.605Z,19.75
2018-07-19T03:33:38.618Z,19.50
2018-07-19T03:34:41.886Z,17.75
2018-07-19T03:35:45.179Z,20.00
2018-07-19T03:36:48.686Z,17.75
2018-07-19T03:37:52.318Z,19.00
2018-07-19T03:38:55.347Z,17.75
2018-07-19T03:39:58.240Z,18.00
2018-07-19T03:41:01.218Z,19.25
2018-07-19T03:42:06.098Z,17.50
2018-07-19T03:43:10.265Z,17.75
2018-07-19T03:44:13.743Z,19.00
2018-07-19T03:45:16.843Z,18.25
2018-07-19T03:46:20.078Z,18.75
2018-07-19T03:47:23.013Z,19.00
2018-07-19T03:48:26.759Z,16.00
2018-07-19T03:49:31.066Z,15.00
2018-07-19T03:50:34.022Z,18.75
2018-07-19T03:51:36.948Z,17.75
2018-07-19T03:52:39.938Z,15.50
2018-07-19T03:53:42.885Z,19.00
2018-07-19T03:54:45.781Z,15.00
2018-07-19T03:55:50.503Z,15.75
2018-07-19T03:56:53.434Z,16.00
2018-07-19T03:57:56.356Z,19.00
2018-07-19T03:58:59.334Z,17.25
2018-07-19T04:00:03.574Z,16.00
2018-07-19T04:01:06.541Z,17.50
2018-07-19T04:02:10.563Z,15.00
2018-07-19T04:03:13.512Z,16.00
2018-07-19T04:04:16.570Z,16.00
2018-07-19T04:05:19.466Z,19.00
2018-07-19T04:06:22.853Z,15.50
2018-07-19T04:07:27.382Z,15.00
2018-07-19T04:08:30.395Z,15.75
2018-07-19T04:09:33.322Z,17.25
2018-07-19T04:10:39.773Z,15.75
2018-07-19T04:11:46.909Z,15.50
2018-07-19T04:12:50.614Z,14.00
2018-07-19T04:13:53.561Z,16.00
2018-07-19T04:14:56.617Z,15.00
2018-07-19T04:16:00.504Z,15.25
2018-07-19T04:17:03.579Z,15.00
2018-07-19T04:18:06.711Z,15.75
2018-07-19T04:19:10.484Z,13.75
2018-07-19T04:20:14.355Z,16.00
2018-07-19T04:21:19.935Z,13.75
2018-07-19T04:22:22.909Z,14.50
2018-07-19T04:23:25.843Z,15.00
2018-07-19T04:24:28.897Z,15.00
2018-07-19T04:25:33.751Z,15.50
2018-07-19T04:26:36.687Z,15.00
2018-07-19T04:27:39.558Z,14.25
2018-07-19T04:28:42.471Z,15.50
2018-07-19T04:29:45.494Z,18.00
2018-07-19T04:30:48.451Z,15.00
2018-07-19T04:31:53.131Z,15.00
2018-07-19T04:32:56.004Z,15.00
2018-07-19T04:33:59.008Z,18.00
2018-07-19T04:35:03.260Z,15.50
2018-07-19T04:36:06.241Z,14.50
2018-07-19T04:37:10.097Z,15.00
2018-07-19T04:38:13.639Z,16.00
2018-07-19T04:39:18.735Z,15.00
2018-07-19T04:40:21.994Z,16.75
2018-07-19T04:41:29.544Z,15.00
2018-07-19T04:42:40.051Z,17.00
2018-07-19T04:46:25.516Z,17.00
2018-07-19T04:58:27.089Z,12.75
2018-07-19T04:59:33.473Z,15.00
2018-07-19T05:00:36.710Z,16.50
2018-07-19T05:01:40.883Z,14.75
2018-07-19T05:02:47.970Z,16.25
2018-07-19T05:03:51.024Z,16.00
2018-07-19T05:05:05.215Z,14.00
2018-07-19T05:07:21.542Z,15.75
2018-07-19T05:08:24.875Z,18.25
2018-07-19T05:09:38.969Z,14.25
2018-07-19T05:10:42.674Z,14.00
2018-07-19T05:14:13.947Z,17.25
2018-07-19T05:20:11.016Z,21.50
2018-07-19T05:21:14.169Z,20.00
2018-07-19T05:22:17.132Z,19.75
2018-07-19T05:24:35.536Z,18.75
2018-07-19T05:26:54.536Z,19.75
2018-07-19T09:14:10.991Z,7.00
2018-07-19T09:15:15.539Z,6.75
2018-07-19T09:16:19.511Z,5.75
2018-07-19T09:17:23.279Z,7.50
2018-07-19T09:18:27.992Z,8.50
2018-07-19T09:19:31.641Z,6.75
2018-07-19T09:20:35.689Z,8.50
2018-07-19T09:21:38.692Z,7.25
2018-07-19T09:22:42.917Z,8.00
2018-07-19T09:23:47.280Z,8.75
2018-07-19T09:24:53.330Z,6.00
2018-07-19T09:25:56.740Z,7.00
2018-07-19T09:27:01.975Z,8.25
2018-07-19T09:28:07.612Z,7.00
2018-07-19T09:29:12.062Z,8.25
2018-07-19T09:30:15.707Z,8.50
2018-07-19T09:31:21.616Z,6.00
2018-07-19T09:32:25.173Z,6.00
2018-07-19T09:33:38.644Z,7.00
2018-07-19T09:34:41.732Z,7.00
2018-07-19T09:35:48.721Z,9.25
2018-07-19T09:36:55.918Z,6.75
2018-07-19T09:38:01.981Z,7.00
2018-07-19T09:39:06.447Z,9.00
2018-07-19T09:40:11.303Z,6.25
2018-07-19T09:41:15.542Z,7.00
2018-07-19T09:42:27.601Z,7.00
2018-07-19T09:43:32.183Z,6.25
2018-07-19T09:44:35.466Z,7.00
2018-07-19T09:48:11.349Z,7.50
2018-07-19T09:49:46.347Z,8.00
2018-07-19T09:59:24.212Z,6.75
2018-07-19T10:00:32.698Z,8.00
2018-07-19T10:01:37.602Z,8.00
2018-07-19T10:02:42.292Z,7.00
2018-07-19T10:03:45.235Z,7.25
2018-07-19T10:05:06.656Z,7.25
2018-07-19T10:06:10.509Z,6.75
2018-07-19T10:07:14.523Z,7.00
2018-07-19T10:08:19.104Z,7.50
2018-07-19T10:10:31.535Z,7.00
2018-07-19T10:11:37.351Z,9.75
2018-07-19T10:12:41.566Z,7.75
2018-07-19T10:13:45.712Z,8.25
2018-07-19T10:14:49.606Z,7.75
2018-07-19T10:15:52.732Z,9.00
2018-07-19T10:16:56.907Z,8.00
2018-07-19T10:18:00.314Z,7.50
2018-07-19T10:19:05.275Z,8.50
2018-07-19T10:20:10.289Z,8.00
2018-07-19T10:21:14.942Z,7.00
2018-07-19T10:22:20.522Z,7.75
2018-07-19T10:23:23.551Z,7.50
2018-07-19T10:24:26.909Z,8.75
2018-07-19T10:25:29.855Z,9.00
2018-07-19T10:26:33.510Z,9.25
2018-07-19T10:27:36.758Z,8.50
2018-07-19T10:28:39.710Z,8.00
2018-07-19T10:29:43.928Z,8.00
2018-07-19T10:30:48.551Z,8.25
2018-07-19T10:31:54.188Z,7.50
2018-07-19T10:33:02.879Z,8.00
2018-07-19T10:34:05.912Z,9.00
2018-07-19T10:35:08.860Z,7.75
2018-07-19T10:36:11.880Z,9.25
2018-07-19T10:37:15.282Z,7.50
2018-07-19T10:38:18.275Z,8.50
2018-07-19T10:39:21.898Z,7.25
2018-07-19T10:40:24.869Z,7.00
2018-07-19T10:41:28.798Z,7.25
2018-07-19T10:42:32.140Z,8.50
2018-07-19T10:43:35.655Z,7.00
2018-07-19T10:44:41.727Z,8.00
2018-07-19T10:45:44.708Z,8.50
2018-07-19T10:46:49.987Z,8.25
2018-07-19T10:47:53.511Z,8.00
2018-07-19T10:48:56.906Z,8.00
2018-07-19T10:50:00.667Z,7.75
2018-07-19T10:51:04.563Z,8.00
2018-07-19T10:52:07.538Z,8.00
2018-07-19T10:53:10.488Z,8.00
2018-07-19T10:54:13.425Z,8.00
2018-07-19T10:56:31.626Z,9.00
2018-07-19T10:57:34.543Z,7.75
2018-07-19T11:00:03.240Z,8.25
2018-07-19T11:01:08.053Z,8.25
2018-07-19T11:02:15.567Z,9.50
2018-07-19T11:03:21.323Z,9.00
2018-07-19T11:04:24.878Z,9.00
2018-07-19T11:05:32.701Z,9.00
2018-07-19T11:06:35.859Z,8.75
2018-07-19T11:07:38.832Z,9.00
2018-07-19T11:08:44.439Z,8.75
2018-07-19T11:10:22.230Z,11.25
2018-07-19T11:13:01.366Z,11.00
2018-07-19T11:14:09.298Z,8.00
2018-07-19T11:15:15.285Z,8.00
2018-07-19T11:16:21.299Z,7.25
2018-07-19T11:17:29.155Z,8.25
2018-07-19T11:18:32.309Z,7.75
2018-07-19T11:19:36.204Z,7.25
2018-07-19T11:20:44.902Z,7.75
2018-07-19T11:21:48.814Z,8.50
2018-07-19T11:24:33.553Z,8.00
2018-07-19T11:25:41.280Z,7.25
2018-07-19T11:26:49.313Z,7.00
2018-07-19T11:27:55.563Z,7.75
2018-07-19T11:29:01.451Z,9.00
2018-07-19T11:35:26.041Z,10.00
2018-07-19T11:37:45.465Z,8.75
2018-07-19T11:39:10.210Z,8.50
2018-07-19T11:40:18.789Z,9.50
2018-07-19T11:41:26.281Z,9.00
2018-07-19T11:42:37.491Z,7.00
2018-07-19T11:43:46.698Z,9.00
2018-07-19T11:44:59.594Z,8.50
2018-07-19T11:46:10.008Z,8.25
2018-07-19T11:47:25.421Z,8.50
2018-07-19T11:48:33.842Z,9.00
2018-07-19T11:49:40.702Z,8.50
2018-07-19T11:50:47.715Z,9.25
2018-07-19T11:53:07.349Z,7.75
2018-07-19T11:54:11.633Z,8.00
2018-07-19T11:56:40.688Z,8.00
2018-07-19T11:57:46.221Z,8.00
2018-07-19T11:58:53.525Z,8.50
2018-07-19T11:59:57.053Z,8.00
2018-07-19T12:01:02.084Z,7.50
2018-07-19T12:03:24.241Z,8.00
2018-07-19T12:04:36.358Z,8.00
2018-07-19T12:05:41.903Z,8.00
2018-07-19T12:06:49.860Z,9.00
2018-07-19T12:08:04.469Z,8.00
2018-07-19T12:09:09.691Z,10.25
2018-07-19T12:10:17.922Z,8.75
2018-07-19T12:11:24.998Z,9.00
2018-07-19T12:12:31.739Z,10.25
2018-07-19T12:13:35.772Z,8.75
2018-07-19T12:14:41.218Z,10.00
2018-07-19T12:15:45.147Z,9.00
2018-07-19T12:17:01.606Z,9.25
2018-07-19T12:18:14.284Z,9.75
2018-07-19T12:19:18.102Z,9.25
2018-07-19T12:20:21.586Z,8.00
2018-07-19T12:21:33.632Z,10.00
2018-07-19T12:22:41.777Z,7.50
2018-07-19T12:23:49.488Z,8.00
2018-07-19T12:26:12.390Z,7.50
2018-07-19T12:27:22.770Z,8.00
2018-07-19T12:28:26.159Z,8.00
2018-07-19T12:29:32.050Z,8.00
2018-07-19T12:30:55.369Z,7.00
2018-07-19T12:32:08.475Z,8.25
2018-07-19T12:33:14.184Z,8.75
2018-07-19T12:34:17.279Z,9.00
2018-07-19T12:35:22.470Z,8.25
2018-07-19T12:36:26.390Z,9.50
2018-07-19T12:37:33.497Z,10.00
2018-07-19T12:38:39.491Z,9.25
2018-07-19T12:39:42.837Z,8.50
2018-07-19T12:40:48.794Z,9.00
2018-07-19T12:41:51.773Z,8.00
2018-07-19T12:42:57.803Z,9.00
2018-07-19T12:44:02.525Z,10.00
2018-07-19T12:45:08.669Z,7.75
2018-07-19T12:46:15.725Z,10.75
2018-07-19T12:47:18.757Z,8.25
2018-07-19T12:48:22.122Z,8.00
2018-07-19T12:49:27.098Z,9.75
2018-07-19T12:50:32.695Z,8.75
2018-07-19T12:51:36.831Z,8.50
2018-07-19T12:52:40.915Z,8.25
2018-07-19T12:53:43.863Z,7.25
2018-07-19T12:54:47.836Z,8.25
2018-07-19T12:55:52.889Z,9.00
2018-07-19T12:56:56.739Z,9.25
2018-07-19T12:58:00.528Z,9.25
2018-07-19T12:59:09.186Z,8.75
2018-07-19T13:00:13.238Z,9.00
2018-07-19T13:01:16.354Z,8.25
2018-07-19T13:02:19.296Z,10.50
2018-07-19T13:03:23.025Z,10.00
2018-07-19T13:04:26.306Z,8.00
2018-07-19T13:05:29.234Z,8.75
2018-07-19T13:06:37.864Z,9.00
2018-07-19T13:07:48.520Z,9.75
2018-07-19T13:08:51.919Z,9.00
2018-07-19T13:09:56.800Z,9.00
2018-07-19T13:11:01.102Z,8.50
2018-07-19T13:12:05.293Z,9.50
2018-07-19T13:13:09.807Z,9.00
2018-07-19T13:14:13.832Z,7.75
2018-07-19T13:15:17.859Z,8.75
2018-07-19T13:16:22.750Z,8.25
2018-07-19T13:17:27.892Z,8.75
2018-07-19T13:18:32.369Z,6.75
2018-07-19T13:19:37.312Z,8.75
2018-07-19T13:20:41.148Z,9.00
2018-07-19T13:21:45.288Z,11.00
2018-07-19T13:22:48.287Z,9.00
2018-07-19T13:23:51.513Z,13.50
2018-07-19T13:24:57.878Z,10.50
2018-07-19T13:26:07.248Z,9.00
2018-07-19T13:28:45.619Z,8.50
2018-07-19T13:29:48.682Z,9.00
2018-07-19T13:30:54.888Z,9.00
2018-07-19T13:31:58.736Z,8.50
2018-07-19T13:33:01.721Z,7.75
2018-07-19T13:34:06.637Z,9.00
2018-07-19T13:35:10.002Z,8.25
2018-07-19T13:36:13.430Z,8.00
2018-07-19T13:37:16.634Z,8.50
2018-07-19T13:38:21.334Z,8.25
2018-07-19T13:39:25.121Z,8.00
2018-07-19T13:40:29.546Z,7.50
2018-07-19T13:41:32.705Z,8.00
2018-07-19T13:42:37.197Z,8.00
2018-07-19T13:43:40.156Z,9.00
2018-07-19T13:44:43.167Z,8.00
2018-07-19T13:45:47.296Z,7.75
2018-07-19T13:46:51.671Z,8.50
2018-07-19T13:47:54.929Z,8.00
2018-07-19T13:48:57.919Z,8.50
2018-07-19T13:50:02.521Z,8.50
2018-07-19T13:51:07.125Z,9.00
2018-07-19T13:53:24.582Z,8.50
2018-07-19T13:54:27.766Z,8.25
2018-07-19T13:55:30.796Z,8.50
2018-07-19T13:56:33.825Z,9.00
2018-07-19T13:57:36.809Z,9.00
2018-07-19T13:58:41.286Z,8.25
2018-07-19T13:59:48.897Z,9.25
2018-07-19T14:00:54.227Z,9.00
2018-07-19T14:01:59.754Z,9.50
2018-07-19T14:03:06.912Z,9.75
2018-07-19T14:04:10.740Z,8.50
2018-07-19T14:05:13.785Z,9.00
2018-07-19T14:06:18.995Z,8.25
2018-07-19T14:07:23.075Z,9.75
2018-07-19T14:08:26.541Z,9.00
2018-07-19T14:09:29.785Z,8.00
2018-07-19T14:10:34.326Z,9.00
2018-07-19T14:11:38.383Z,8.50
2018-07-19T14:12:47.710Z,9.25
2018-07-19T14:13:52.824Z,8.25
2018-07-19T14:14:55.754Z,10.00
2018-07-19T14:16:08.101Z,9.75
2018-07-19T14:17:11.325Z,8.00
2018-07-19T14:18:14.535Z,9.00
2018-07-19T14:19:21.183Z,14.00
2018-07-19T23:30:11.332Z,17.00
2018-07-19T23:31:15.346Z,18.00
2018-07-19T23:32:18.952Z,20.75
2018-07-19T23:33:21.969Z,18.00
2018-07-19T23:34:25.108Z,17.50
2018-07-19T23:35:33.168Z,17.00
2018-07-19T23:36:43.089Z,17.50
2018-07-19T23:37:49.138Z,17.25
2018-07-19T23:38:56.238Z,19.75
2018-07-19T23:40:09.763Z,19.50
2018-07-19T23:41:17.596Z,18.50
2018-07-19T23:42:26.408Z,18.00
2018-07-19T23:43:32.682Z,17.75
2018-07-19T23:44:42.972Z,15.00
2018-07-19T23:46:48.694Z,18.75
2018-07-19T23:47:51.878Z,16.25
2018-07-19T23:48:56.692Z,18.00
2018-07-19T23:49:59.941Z,17.50
2018-07-19T23:51:02.955Z,18.00
2018-07-19T23:52:05.816Z,17.50
2018-07-19T23:53:08.788Z,15.75
2018-07-19T23:54:11.636Z,16.50
2018-07-19T23:55:15.002Z,19.25
2018-07-19T23:56:19.343Z,17.50
2018-07-19T23:57:23.187Z,19.50
2018-07-19T23:58:26.041Z,21.75
2018-07-19T23:59:29.017Z,24.00
